AirNav   Bose Proflight Series 2 Wireless Aviation Headset
 
 997 users online  

11PA Worcester Heliport
Worcester, Pennsylvania, USA


FAA INFORMATION EFFECTIVE 07 NOVEMBER 2019

Location

FAA Identifier: 11PA
Lat/Long: 40-11-31.0000N 075-18-48.0000W
40-11.516667N 075-18.800000W
40.1919444,-75.3133333
(estimated)
Elevation: 415 ft. / 126 m (estimated)
From city: 2 miles ESE of WORCESTER, PA
Time zone: UTC -5 (UTC -4 during Daylight Saving Time)
Zip code: 19477

Heliport Operations

Heliport use: Private use. Permission required prior to landing
Activation date: 03/2019
Control tower: no
ARTCC: NEW YORK CENTER
FSS: WILLIAMSPORT FLIGHT SERVICE STATION
Attendance: 
Wind indicator: no
Segmented circle: no

Heliport Communications

WX AWOS-3 at LOM (4 nm SE): 118.925 (215-646-1068)
WX ASOS at PTW (12 nm W): 119.425 (610-495-0823)
WX AWOS-3 at CKZ (12 nm N): 126.325 (215-257-7291)
WX ASOS at DYL (12 nm NE): 118.875 (215-345-0392)
WX AWOS-3 at UKT (15 nm N): 119.475 (215-538-7610)
WX ASOS at PNE (15 nm SE): PHONE 215-677-0146
WX AWOS-3T at OQN (17 nm SW): 121.4 ((610) 692-6190)
WX ASOS at PHL (19 nm S): PHONE 215-492-9617

Nearby radio navigation aids

VOR radial/distance  VOR name  Freq  Var
PTWr108/11.5POTTSTOWN VORTAC116.5009W
ARDr269/18.9YARDLEY VOR/DME108.2010W
MXEr054/23.2MODENA VORTAC113.2009W
ETXr153/28.8EAST TEXAS VOR/DME110.2009W
FJCr179/32.7ALLENTOWN VORTAC117.5010W
OODr009/33.4WOODSTOWN VORTAC112.8010W
DQOr034/33.7DUPONT VORTAC114.0010W
GXUr300/34.7MC GUIRE VORTAC110.6012W
SBJr238/35.1SOLBERG VOR/DME112.9010W
RBVr279/37.5ROBBINSVILLE VORTAC113.8010W

 
NDB name  Hdg/Dist  Freq  Var  ID
AMBLER354/4.227512WING .. -. --.

Heliport Services

Runway Information

Helipad H1

Dimensions: 60 x 60 ft. / 18 x 18 m
Surface: turf/dirt
Latitude: 40-11.516667N
Longitude: 075-18.800000W
Elevation: 415.0 ft.
Traffic pattern: leftleft

Heliport Ownership and Management from official FAA records

Ownership: Privately-owned
Owner: PAUL HECK
2125 BETHEL ROAD
LANSDALE, PA 19446
Phone 215-699-5555
Manager: PAUL HECK
2125 BETHEL ROAD
LANSDALE, PA 19446
Phone 215-699-5555

Additional Remarks

FOR CD CTC PHILADELPHIA APCH AT 800-354-9884.

Instrument Procedures

There are no published instrument procedures at 11PA.

Some nearby airports with instrument procedures:

KLOM - Wings Field Airport (4 nm SE)
N10 - Perkiomen Valley Airport (5 nm W)
KPTW - Heritage Field Airport (12 nm W)
KCKZ - Pennridge Airport (12 nm N)
KDYL - Doylestown Airport (12 nm NE)
KUKT - Quakertown Airport (15 nm N)
KPNE - Northeast Philadelphia Airport (15 nm SE)
N47 - Pottstown Municipal Airport (17 nm W)
KOQN - Brandywine Regional Airport (17 nm SW)
KPHL - Philadelphia International Airport (19 nm S)
 
Loc | Ops | Rwys | IFR | FBO | Links
Com | Nav | Svcs | Stats | Notes
Aerial photo
No photo
 
Airport distance calculator
Flying to Worcester Heliport? Find the distance to fly.

From to 11PA

Sunrise and sunset
Times for 20-Nov-2019
 Local
(UTC-5)
 Zulu
(UTC)
Morning civil twilight06:2411:24
Sunrise06:5411:54
Sunset16:4021:40
Evening civil twilight17:1022:10

Current date and time
Zulu (UTC)  20-Nov-2019 12:57:50
Local (UTC-5)  20-Nov-2019 07:57:50
 
METAR
KLOM 
4nm SE 
201235Z AUTO 00000KT 10SM BKN055 04/00 A2996 RMK AO2 T00430002
KPTW 
11nm W 
201254Z AUTO 33008KT 9SM OVC060 04/00 A2998 RMK AO2 SLP152 T00390000
KCKZ 
12nm N 
201235Z AUTO 33004KT 10SM BKN050 03/00 A2996 RMK AO2
KDYL 
12nm NE 
201254Z AUTO 33005KT 10SM FEW026 BKN055 05/M01 A2995 RMK AO2 SLP147 T00501006
KUKT 
15nm N 
201240Z AUTO VRB05KT 10SM 04/00 A2996 RMK A01
KPNE 
15nm SE 
201254Z 32007KT 10SM SCT055 BKN120 07/M01 A2997 RMK AO2 SLP151 T00671006
KOQN 
17nm SW 
201235Z AUTO 29006KT 10SM 05/00 A2996 RMK AO2
KPHL 
20nm S 
201254Z 33009KT 10SM SCT070 OVC130 06/M01 A2997 RMK AO2 SLP150 T00611011
TAF
KPNE 
15nm SE 
201120Z 2012/2112 33010KT P6SM OVC100 FM201600 33011G19KT P6SM BKN070 FM210100 33009KT P6SM SCT060
KPHL 
20nm S 
201120Z 2012/2118 33010KT P6SM OVC080 FM201600 33012G21KT P6SM BKN070 FM210100 32011KT P6SM SCT060
NOTAMs
Click for the latest NOTAMs
NOTAMs are issued by the DoD/FAA and will open in a separate window not controlled by AirNav.

 

 
 

Would you like to see your business listed on this page?

 If your business provides an interesting product or service to pilots, flight crews, aircraft, or users of the Worcester Heliport, you should consider listing it here.  To start the listing process, click on the button below
 
Add a business
 

Other Pages about Worcester Heliport

Update a link
 
Copyright © AirNav, LLC. All rights reserved. Privacy Policy  Contact